Time;durP1;ratioP1;P1;durP2;ratioP2;P2;SDS_P1;SDS_P2;PMS_P1;PMS_P2;Temp;Humidity;BMP_temperature;BMP_pressure;BME280_temperature;BME280_humidity;BME280_pressure;Samples;Min_cycle;Max_cycle;Signal;HPM_P1;HPM_P2
2023/12/09 00:01:00;;;;;;;45.13;25.15;;;1.50;99.90;;;;;;5055370;28;20021;-65
2023/12/09 00:03:26;;;;;;;47.33;25.45;;;1.50;99.90;;;;;;5055248;28;20508;-64
2023/12/09 00:05:52;;;;;;;45.10;26.08;;;1.60;99.90;;;;;;5054800;28;20235;-65
2023/12/09 00:08:17;;;;;;;47.85;26.33;;;1.60;99.90;;;;;;5055515;28;20040;-64
2023/12/09 00:10:43;;;;;;;49.65;26.52;;;1.50;99.90;;;;;;5053823;28;20480;-63
2023/12/09 00:13:09;;;;;;;45.25;25.38;;;1.50;99.90;;;;;;5054138;28;20029;-63
2023/12/09 00:15:34;;;;;;;44.28;25.90;;;1.50;99.90;;;;;;5054704;28;20389;-65
2023/12/09 00:18:00;;;;;;;47.10;26.23;;;1.50;99.90;;;;;;5055294;28;20088;-63
2023/12/09 00:20:25;;;;;;;47.08;23.75;;;1.50;99.90;;;;;;5054936;28;20492;-64
2023/12/09 00:22:51;;;;;;;43.15;26.25;;;1.50;99.90;;;;;;5054777;28;20025;-64
2023/12/09 00:25:16;;;;;;;43.95;24.90;;;1.50;99.90;;;;;;5055206;28;20027;-64
2023/12/09 00:27:42;;;;;;;44.30;23.63;;;1.50;99.90;;;;;;5055006;28;20032;-65
2023/12/09 00:30:08;;;;;;;43.58;25.05;;;1.50;99.90;;;;;;5055198;28;20025;-63
2023/12/09 00:32:34;;;;;;;49.92;27.52;;;1.50;99.90;;;;;;5054641;28;20025;-63
2023/12/09 00:35:00;;;;;;;43.45;26.13;;;1.50;99.90;;;;;;5054852;28;20109;-64
2023/12/09 00:37:26;;;;;;;42.95;24.45;;;1.50;99.90;;;;;;5054821;28;20025;-64
2023/12/09 00:39:52;;;;;;;42.70;24.35;;;1.50;99.90;;;;;;5054206;28;20025;-64
2023/12/09 00:42:17;;;;;;;46.85;24.95;;;1.50;99.90;;;;;;5054548;28;20032;-63
2023/12/09 00:44:43;;;;;;;40.90;23.70;;;1.50;99.90;;;;;;5054010;28;20043;-63
2023/12/09 00:47:09;;;;;;;46.58;24.63;;;1.50;99.90;;;;;;5054725;28;20021;-63
2023/12/09 00:49:34;;;;;;;44.72;26.10;;;1.50;99.90;;;;;;5054379;28;20454;-64
2023/12/09 00:52:00;;;;;;;43.67;24.88;;;1.50;99.90;;;;;;5054238;28;20029;-65
2023/12/09 00:54:26;;;;;;;42.08;25.20;;;1.50;99.90;;;;;;5054588;28;20040;-64
2023/12/09 00:56:51;;;;;;;41.70;24.73;;;1.50;99.90;;;;;;5054084;28;20154;-65
2023/12/09 00:59:17;;;;;;;42.10;24.00;;;1.50;99.90;;;;;;5054484;28;20048;-64
2023/12/09 01:01:42;;;;;;;46.53;24.98;;;1.50;99.90;;;;;;5052842;28;20053;-64
2023/12/09 01:04:08;;;;;;;43.17;24.95;;;1.50;99.90;;;;;;5054318;28;20037;-64
2023/12/09 01:06:34;;;;;;;44.75;24.63;;;1.50;99.90;;;;;;5054398;28;20404;-64
2023/12/09 01:08:59;;;;;;;42.70;23.90;;;1.50;99.90;;;;;;5053548;28;20508;-64
2023/12/09 01:11:25;;;;;;;44.05;24.80;;;1.50;99.90;;;;;;5054398;28;20087;-64
2023/12/09 01:13:50;;;;;;;44.63;24.92;;;1.50;99.90;;;;;;5053811;28;20028;-64
2023/12/09 01:16:16;;;;;;;44.38;25.08;;;1.50;99.90;;;;;;5053845;28;20517;-64
2023/12/09 01:18:42;;;;;;;46.47;24.10;;;1.50;99.90;;;;;;5053722;28;20099;-64
2023/12/09 01:21:08;;;;;;;40.35;22.63;;;1.50;99.90;;;;;;5054009;28;20021;-64
2023/12/09 01:23:34;;;;;;;41.90;24.15;;;1.50;99.90;;;;;;5054335;28;20041;-64
2023/12/09 01:25:59;;;;;;;42.92;24.08;;;1.50;99.90;;;;;;5053570;28;20471;-64
2023/12/09 01:28:25;;;;;;;39.65;23.60;;;1.50;99.90;;;;;;5053608;28;20032;-64
2023/12/09 01:30:51;;;;;;;39.63;24.17;;;1.50;99.90;;;;;;5052591;28;20032;-64
2023/12/09 01:33:16;;;;;;;41.58;24.33;;;1.40;99.90;;;;;;5053800;28;20104;-64
2023/12/09 01:35:42;;;;;;;40.50;24.38;;;1.40;99.90;;;;;;5053119;28;20036;-65
2023/12/09 01:38:08;;;;;;;43.38;23.85;;;1.50;99.90;;;;;;5052356;28;20017;-64
2023/12/09 01:40:33;;;;;;;42.67;24.58;;;1.40;99.90;;;;;;5053943;28;20025;-64
2023/12/09 01:42:59;;;;;;;41.38;23.55;;;1.50;99.90;;;;;;5052823;28;20859;-64
2023/12/09 01:45:24;;;;;;;41.97;24.58;;;1.50;99.90;;;;;;5053557;28;20028;-64
2023/12/09 01:47:50;;;;;;;41.78;24.27;;;1.50;99.90;;;;;;5053123;28;20110;-64
2023/12/09 01:50:16;;;;;;;41.20;24.00;;;1.50;99.90;;;;;;5053214;28;20036;-64
2023/12/09 01:52:43;;;;;;;39.30;23.92;;;1.40;99.90;;;;;;5053102;28;20029;-65
2023/12/09 01:55:13;;;;;;;37.75;22.92;;;1.40;99.90;;;;;;5053243;28;20025;-64
2023/12/09 01:57:39;;;;;;;39.30;22.58;;;1.40;99.90;;;;;;5053148;28;20021;-64
2023/12/09 02:00:05;;;;;;;40.38;24.52;;;1.40;99.90;;;;;;5053104;28;20025;-64
2023/12/09 02:02:31;;;;;;;42.25;24.65;;;1.40;99.90;;;;;;5051996;28;20131;-67
2023/12/09 02:04:59;;;;;;;37.95;23.55;;;1.40;99.90;;;;;;5052767;28;20533;-64
2023/12/09 02:07:24;;;;;;;39.72;23.13;;;1.40;99.90;;;;;;5053434;28;20063;-64
2023/12/09 02:09:50;;;;;;;43.08;24.52;;;1.50;99.90;;;;;;5052821;28;20029;-64
2023/12/09 02:12:25;;;;;;;39.80;23.13;;;1.50;99.90;;;;;;5052661;28;20099;-64
2023/12/09 02:15:01;;;;;;;37.17;22.25;;;1.40;99.90;;;;;;5052480;28;20021;-64
2023/12/09 02:17:33;;;;;;;40.70;22.58;;;1.40;99.90;;;;;;5053340;28;20388;-64
2023/12/09 02:20:00;;;;;;;35.95;21.85;;;1.40;99.90;;;;;;5052441;28;20473;-64
2023/12/09 02:22:26;;;;;;;38.45;22.77;;;1.40;99.90;;;;;;5053277;28;20362;-63
2023/12/09 02:24:51;;;;;;;39.63;23.42;;;1.50;99.90;;;;;;5052158;28;20029;-64
2023/12/09 02:27:47;;;;;;;37.70;22.45;;;1.50;99.90;;;;;;5052902;28;20029;-64
2023/12/09 02:30:39;;;;;;;37.50;21.92;;;1.40;99.90;;;;;;5044767;28;20036;-64
2023/12/09 02:33:08;;;;;;;36.95;22.58;;;1.50;99.90;;;;;;5052208;28;20029;-64
2023/12/09 02:35:38;;;;;;;38.85;22.90;;;1.50;99.90;;;;;;5052460;28;20496;-64
2023/12/09 02:38:04;;;;;;;37.90;22.63;;;1.50;99.90;;;;;;5051778;28;20029;-64
2023/12/09 02:40:31;;;;;;;35.90;21.63;;;1.50;99.90;;;;;;5053052;28;20029;-64
2023/12/09 02:42:56;;;;;;;37.08;22.73;;;1.40;99.90;;;;;;5052329;28;20035;-64
2023/12/09 02:45:22;;;;;;;40.88;22.52;;;1.40;99.90;;;;;;5052400;28;20104;-64
2023/12/09 02:47:48;;;;;;;38.10;22.63;;;1.40;99.90;;;;;;5052621;28;20028;-64
2023/12/09 02:50:14;;;;;;;37.13;22.17;;;1.50;99.90;;;;;;5052824;28;20032;-64
2023/12/09 02:52:40;;;;;;;40.08;23.27;;;1.40;99.90;;;;;;5053596;28;20074;-63
2023/12/09 02:55:07;;;;;;;37.05;21.60;;;1.50;99.90;;;;;;5055142;28;20037;-64
2023/12/09 02:57:33;;;;;;;37.40;22.80;;;1.50;99.90;;;;;;5055416;28;20029;-64
2023/12/09 02:59:59;;;;;;;36.42;21.77;;;1.50;99.90;;;;;;5054797;28;20027;-64
2023/12/09 03:02:25;;;;;;;37.13;21.67;;;1.50;99.90;;;;;;5053498;28;20049;-64
2023/12/09 03:04:50;;;;;;;38.72;23.00;;;1.50;99.90;;;;;;5054434;28;20029;-64
2023/12/09 03:07:20;;;;;;;37.88;22.15;;;1.50;99.90;;;;;;5054962;28;20108;-63
2023/12/09 03:09:46;;;;;;;40.72;23.17;;;1.50;99.90;;;;;;5053459;28;20033;-70
2023/12/09 03:12:12;;;;;;;36.53;22.85;;;1.40;99.90;;;;;;5052744;28;20025;-64
2023/12/09 03:14:38;;;;;;;35.40;21.60;;;1.50;99.90;;;;;;5052594;28;20474;-63
2023/12/09 03:17:05;;;;;;;37.60;22.80;;;1.50;99.90;;;;;;5051789;28;20029;-65
2023/12/09 03:19:30;;;;;;;36.60;22.35;;;1.40;99.90;;;;;;5052095;28;20040;-64
2023/12/09 03:21:56;;;;;;;36.50;22.50;;;1.50;99.90;;;;;;5052014;28;20028;-64
2023/12/09 03:24:22;;;;;;;38.30;22.92;;;1.50;99.90;;;;;;5052286;28;20526;-64
2023/12/09 03:26:51;;;;;;;36.30;21.50;;;1.50;99.90;;;;;;5055816;28;20108;-70
2023/12/09 03:29:17;;;;;;;36.47;21.60;;;1.50;99.90;;;;;;5056291;28;20079;-64
2023/12/09 03:31:43;;;;;;;36.60;21.75;;;1.50;99.90;;;;;;5056103;28;20061;-64
2023/12/09 03:34:08;;;;;;;37.38;22.17;;;1.50;99.90;;;;;;5055753;28;20072;-63
2023/12/09 03:36:34;;;;;;;37.63;23.52;;;1.50;99.90;;;;;;5055586;28;20029;-64
2023/12/09 03:39:00;;;;;;;36.78;22.42;;;1.50;99.90;;;;;;5055695;28;20025;-64
2023/12/09 03:41:25;;;;;;;38.58;22.23;;;1.50;99.90;;;;;;5056043;28;20033;-63
2023/12/09 03:43:51;;;;;;;37.40;23.23;;;1.50;99.90;;;;;;5055546;28;20092;-65
2023/12/09 03:46:17;;;;;;;37.00;22.55;;;1.50;99.90;;;;;;5056203;28;20168;-65
2023/12/09 03:48:42;;;;;;;39.45;22.75;;;1.50;99.90;;;;;;5055832;28;20036;-65
2023/12/09 03:51:08;;;;;;;40.15;22.98;;;1.50;99.90;;;;;;5055371;28;20259;-65
2023/12/09 03:53:33;;;;;;;40.45;24.70;;;1.50;99.90;;;;;;5055731;28;20056;-64
2023/12/09 03:55:59;;;;;;;37.10;22.80;;;1.50;99.90;;;;;;5055074;28;20060;-64
2023/12/09 03:58:25;;;;;;;37.78;23.23;;;1.50;99.90;;;;;;5055756;28;20032;-64
2023/12/09 04:00:51;;;;;;;38.00;24.25;;;1.50;99.90;;;;;;5055362;28;20039;-65
2023/12/09 04:03:16;;;;;;;38.05;23.73;;;1.50;99.90;;;;;;5055717;28;20132;-65
2023/12/09 04:05:42;;;;;;;41.97;24.65;;;1.50;99.90;;;;;;5055683;28;20040;-65
2023/12/09 04:08:08;;;;;;;40.72;24.02;;;1.50;99.90;;;;;;5054850;28;20036;-64
2023/12/09 04:10:34;;;;;;;45.03;24.98;;;1.50;99.90;;;;;;5055393;28;20518;-64
2023/12/09 04:12:59;;;;;;;42.83;25.88;;;1.50;99.90;;;;;;5055069;28;20104;-63
2023/12/09 04:15:27;;;;;;;41.53;24.58;;;1.50;99.90;;;;;;5055195;28;20036;-64
2023/12/09 04:17:53;;;;;;;39.42;23.35;;;1.50;99.90;;;;;;5054943;28;20028;-64
2023/12/09 04:20:19;;;;;;;43.00;24.95;;;1.50;99.90;;;;;;5055545;28;20351;-63
2023/12/09 04:22:44;;;;;;;44.03;24.70;;;1.50;99.90;;;;;;5054872;28;20029;-64
2023/12/09 04:25:10;;;;;;;39.38;23.88;;;1.50;99.90;;;;;;5054688;28;20066;-64
2023/12/09 04:27:36;;;;;;;42.70;25.02;;;1.40;99.90;;;;;;5054577;28;20025;-64
2023/12/09 04:30:04;;;;;;;43.58;24.67;;;1.50;99.90;;;;;;5054847;28;20048;-63
2023/12/09 04:32:30;;;;;;;41.58;25.33;;;1.50;99.90;;;;;;5054976;28;20025;-64
2023/12/09 04:34:56;;;;;;;42.85;24.73;;;1.50;99.90;;;;;;5054208;28;20071;-64
2023/12/09 04:37:22;;;;;;;41.15;23.55;;;1.50;99.90;;;;;;5054430;28;20389;-64
2023/12/09 04:39:48;;;;;;;40.00;22.88;;;1.40;99.90;;;;;;5054902;28;20025;-63
2023/12/09 04:42:14;;;;;;;44.78;24.70;;;1.40;99.90;;;;;;5054745;28;20037;-63
2023/12/09 04:44:40;;;;;;;39.13;23.05;;;1.40;99.90;;;;;;5054751;28;20040;-64
2023/12/09 04:47:06;;;;;;;41.72;24.75;;;1.40;99.90;;;;;;5054388;28;20116;-63
2023/12/09 04:49:32;;;;;;;41.70;24.58;;;1.50;99.90;;;;;;5054764;28;20024;-64
2023/12/09 04:51:57;;;;;;;42.28;23.25;;;1.40;99.90;;;;;;5054341;28;20033;-65
2023/12/09 04:54:23;;;;;;;43.17;24.70;;;1.40;99.90;;;;;;5054607;28;20493;-65
2023/12/09 04:56:49;;;;;;;46.03;25.90;;;1.40;99.90;;;;;;5054760;28;20017;-65
2023/12/09 04:59:14;;;;;;;44.80;25.23;;;1.40;99.90;;;;;;5053848;28;20083;-63
2023/12/09 05:01:41;;;;;;;45.25;25.40;;;1.40;99.90;;;;;;5054336;28;20459;-65
2023/12/09 05:04:07;;;;;;;42.20;24.40;;;1.40;99.90;;;;;;5053977;28;20462;-65
2023/12/09 05:06:32;;;;;;;44.22;25.45;;;1.40;99.90;;;;;;5054125;28;20079;-65
2023/12/09 05:08:58;;;;;;;39.90;24.90;;;1.40;99.90;;;;;;5053680;28;20029;-65
2023/12/09 05:11:24;;;;;;;42.08;24.08;;;1.40;99.90;;;;;;5054333;28;20394;-65
2023/12/09 05:13:49;;;;;;;39.85;23.15;;;1.40;99.90;;;;;;5054166;28;20061;-64
2023/12/09 05:16:15;;;;;;;42.78;25.23;;;1.40;99.90;;;;;;5053516;28;20421;-65
2023/12/09 05:18:41;;;;;;;43.30;24.45;;;1.40;99.90;;;;;;5054067;28;20032;-65
2023/12/09 05:21:07;;;;;;;38.13;23.45;;;1.40;99.90;;;;;;5053654;28;20021;-65
2023/12/09 05:23:33;;;;;;;40.40;24.05;;;1.40;99.90;;;;;;5054192;28;20482;-64
2023/12/09 05:25:59;;;;;;;38.53;23.02;;;1.30;99.90;;;;;;5053319;28;20104;-65
2023/12/09 05:28:24;;;;;;;42.13;24.48;;;1.30;99.90;;;;;;5054109;28;20552;-65
2023/12/09 05:30:50;;;;;;;42.72;24.52;;;1.30;99.90;;;;;;5053999;28;20032;-63
2023/12/09 05:33:16;;;;;;;42.83;24.75;;;1.30;99.90;;;;;;5051666;28;20254;-63
2023/12/09 05:35:41;;;;;;;42.80;23.73;;;1.30;99.90;;;;;;5054333;28;20083;-63
2023/12/09 05:38:07;;;;;;;40.33;23.42;;;1.30;99.90;;;;;;5053221;28;20440;-64
2023/12/09 05:40:33;;;;;;;41.08;23.48;;;1.30;99.90;;;;;;5052506;28;20037;-64
2023/12/09 05:42:58;;;;;;;39.53;24.15;;;1.30;99.90;;;;;;5053342;28;20048;-65
2023/12/09 05:45:24;;;;;;;38.45;23.08;;;1.30;99.90;;;;;;5053617;28;20102;-65
2023/12/09 05:47:49;;;;;;;38.70;22.88;;;1.30;99.90;;;;;;5052793;28;20029;-65
2023/12/09 05:50:15;;;;;;;41.75;24.08;;;1.30;99.90;;;;;;5053047;28;20029;-64
2023/12/09 05:52:41;;;;;;;38.78;22.38;;;1.30;99.90;;;;;;5053428;28;20028;-64
2023/12/09 05:55:07;;;;;;;39.40;23.42;;;1.30;99.90;;;;;;5053125;28;20037;-65
2023/12/09 05:57:32;;;;;;;36.72;22.63;;;1.30;99.90;;;;;;5053397;28;20458;-64
2023/12/09 05:59:58;;;;;;;37.50;21.75;;;1.40;99.90;;;;;;5053222;28;20036;-71
2023/12/09 06:02:24;;;;;;;36.72;21.92;;;1.40;99.90;;;;;;5053224;28;20045;-66
2023/12/09 06:04:49;;;;;;;40.85;22.25;;;1.30;99.90;;;;;;5052679;28;20123;-64
2023/12/09 06:07:15;;;;;;;38.78;22.95;;;1.30;99.90;;;;;;5053157;28;20067;-64
2023/12/09 06:09:41;;;;;;;38.30;22.33;;;1.30;99.90;;;;;;5053569;28;20106;-64
2023/12/09 06:12:07;;;;;;;33.40;20.40;;;1.30;99.90;;;;;;5053128;28;20484;-64
2023/12/09 06:14:32;;;;;;;35.53;20.52;;;1.30;99.90;;;;;;5053244;28;20032;-64
2023/12/09 06:16:58;;;;;;;35.60;22.10;;;1.30;99.90;;;;;;5053099;28;20377;-64
2023/12/09 06:19:23;;;;;;;39.42;23.02;;;1.30;99.90;;;;;;5052723;28;20028;-64
2023/12/09 06:21:49;;;;;;;40.33;23.88;;;1.30;99.90;;;;;;5052801;28;20091;-64
2023/12/09 06:24:15;;;;;;;34.28;21.23;;;1.30;99.90;;;;;;5052448;28;20119;-64
2023/12/09 06:26:44;;;;;;;39.55;22.80;;;1.30;99.90;;;;;;5052941;28;20076;-64
2023/12/09 06:29:13;;;;;;;39.55;23.45;;;1.30;99.90;;;;;;5052634;28;20063;-64
2023/12/09 06:31:39;;;;;;;35.20;21.80;;;1.30;99.90;;;;;;5052923;28;20024;-64
2023/12/09 06:34:05;;;;;;;37.78;22.45;;;1.30;99.90;;;;;;5052269;28;20047;-62
2023/12/09 06:36:30;;;;;;;36.72;22.40;;;1.20;99.90;;;;;;5052553;28;20430;-63
2023/12/09 06:38:56;;;;;;;38.00;22.08;;;1.20;99.90;;;;;;5052689;28;20032;-64
2023/12/09 06:41:21;;;;;;;37.13;21.88;;;1.20;99.90;;;;;;5052281;28;20044;-63
2023/12/09 06:43:47;;;;;;;34.50;21.52;;;1.20;99.90;;;;;;5052965;28;20040;-63
2023/12/09 06:46:13;;;;;;;35.85;20.90;;;1.30;99.90;;;;;;5052181;28;20547;-63
2023/12/09 06:48:38;;;;;;;37.13;22.80;;;1.20;99.90;;;;;;5052546;28;20017;-64
2023/12/09 06:51:07;;;;;;;39.38;21.77;;;1.20;99.90;;;;;;5052318;28;20036;-64
2023/12/09 06:53:32;;;;;;;35.55;21.60;;;1.20;99.90;;;;;;5052667;28;20025;-63
2023/12/09 06:55:58;;;;;;;35.42;21.92;;;1.20;99.90;;;;;;5052734;28;20062;-63
2023/12/09 06:58:24;;;;;;;37.45;21.90;;;1.20;99.90;;;;;;5052217;28;20118;-64
2023/12/09 07:00:50;;;;;;;39.03;22.60;;;1.20;99.90;;;;;;5055466;28;20082;-64
2023/12/09 07:03:16;;;;;;;34.92;21.67;;;1.20;99.90;;;;;;5055763;28;20049;-65
2023/12/09 07:05:41;;;;;;;36.53;21.30;;;1.20;99.90;;;;;;5056751;28;20064;-64
2023/12/09 07:08:10;;;;;;;36.05;21.95;;;1.20;99.90;;;;;;5056310;28;20029;-65
2023/12/09 07:10:36;;;;;;;36.30;21.75;;;1.20;99.90;;;;;;5056645;28;20029;-65
2023/12/09 07:13:02;;;;;;;36.58;21.98;;;1.20;99.90;;;;;;5056531;28;20377;-65
2023/12/09 07:15:27;;;;;;;35.35;21.30;;;1.20;99.90;;;;;;5055755;28;20031;-65
2023/12/09 07:17:53;;;;;;;37.45;21.75;;;1.20;99.90;;;;;;5056510;28;20386;-65
2023/12/09 07:20:18;;;;;;;32.92;20.63;;;1.20;99.90;;;;;;5055985;28;20060;-65
2023/12/09 07:22:44;;;;;;;35.97;21.55;;;1.20;99.90;;;;;;5056017;28;20025;-65
2023/12/09 07:25:10;;;;;;;36.97;20.70;;;1.20;99.90;;;;;;5055667;28;20120;-65
2023/12/09 07:27:35;;;;;;;31.95;20.23;;;1.20;99.90;;;;;;5056239;28;20392;-65
2023/12/09 07:30:01;;;;;;;35.92;20.77;;;1.20;99.90;;;;;;5056270;28;20029;-64
2023/12/09 07:32:27;;;;;;;36.95;21.23;;;1.20;99.90;;;;;;5055762;28;20067;-64
2023/12/09 07:34:52;;;;;;;34.67;20.65;;;1.20;99.90;;;;;;5055853;28;20111;-64
2023/12/09 07:37:18;;;;;;;34.80;20.10;;;1.10;99.90;;;;;;5055952;28;20039;-65
2023/12/09 07:39:43;;;;;;;33.15;20.17;;;1.20;99.90;;;;;;5055489;28;20060;-63
2023/12/09 07:42:09;;;;;;;33.28;20.23;;;1.20;99.90;;;;;;5055735;28;20029;-64
2023/12/09 07:44:35;;;;;;;34.75;20.08;;;1.20;99.90;;;;;;5055925;28;20110;-65
2023/12/09 07:47:01;;;;;;;32.28;20.02;;;1.20;99.90;;;;;;5055984;28;20384;-65
2023/12/09 07:49:27;;;;;;;32.05;20.23;;;1.20;99.90;;;;;;5055532;28;20029;-65
2023/12/09 07:51:53;;;;;;;34.42;21.60;;;1.20;99.90;;;;;;5055837;28;20473;-64
2023/12/09 07:54:19;;;;;;;33.60;19.95;;;1.20;99.90;;;;;;5055720;28;20047;-64
2023/12/09 07:56:45;;;;;;;32.30;20.15;;;1.20;99.90;;;;;;5055885;28;20501;-64
2023/12/09 07:59:10;;;;;;;33.03;20.38;;;1.20;99.90;;;;;;5054991;28;20025;-64
2023/12/09 08:01:36;;;;;;;40.38;21.52;;;1.20;99.90;;;;;;5055685;28;20060;-63
2023/12/09 08:04:02;;;;;;;35.58;21.85;;;1.20;99.90;;;;;;5055193;28;20478;-64
2023/12/09 08:06:27;;;;;;;39.55;21.38;;;1.20;99.90;;;;;;5054844;28;20036;-63
2023/12/09 08:08:53;;;;;;;38.63;21.60;;;1.20;99.90;;;;;;5055343;28;20028;-65
2023/12/09 08:11:19;;;;;;;38.70;22.02;;;1.10;99.90;;;;;;5054371;28;20028;-64
2023/12/09 08:13:44;;;;;;;35.97;22.65;;;1.10;99.90;;;;;;5055313;28;20036;-64
2023/12/09 08:16:10;;;;;;;38.25;22.80;;;1.20;99.90;;;;;;5054856;28;20029;-64
2023/12/09 08:18:36;;;;;;;43.70;22.85;;;1.10;99.90;;;;;;5054917;28;20060;-64
2023/12/09 08:21:01;;;;;;;41.33;23.45;;;1.10;99.90;;;;;;5054907;28;20035;-63
2023/12/09 08:23:27;;;;;;;36.60;23.20;;;1.10;99.90;;;;;;5054581;28;20025;-63
2023/12/09 08:25:53;;;;;;;40.58;23.33;;;1.20;99.90;;;;;;5055069;28;20029;-63
2023/12/09 08:28:19;;;;;;;37.55;23.83;;;1.20;99.90;;;;;;5054356;28;20029;-64
2023/12/09 08:30:46;;;;;;;37.88;23.02;;;1.20;99.90;;;;;;5053448;28;20025;-64
2023/12/09 08:33:13;;;;;;;51.15;24.02;;;1.20;99.90;;;;;;5054528;28;20032;-64
2023/12/09 08:35:38;;;;;;;41.58;24.65;;;1.20;99.90;;;;;;5054998;28;20029;-65
2023/12/09 08:38:04;;;;;;;40.47;24.90;;;1.10;99.90;;;;;;5054313;28;20108;-64
2023/12/09 08:40:29;;;;;;;43.28;25.08;;;1.10;99.90;;;;;;5054471;28;20074;-64
2023/12/09 08:42:55;;;;;;;43.05;24.73;;;1.20;99.90;;;;;;5054906;28;20108;-64
2023/12/09 08:45:21;;;;;;;43.13;24.17;;;1.20;99.90;;;;;;5053994;28;20029;-64
2023/12/09 08:47:46;;;;;;;41.35;23.95;;;1.10;99.90;;;;;;5054969;28;20100;-64
2023/12/09 08:50:13;;;;;;;41.60;24.25;;;1.20;99.90;;;;;;5054215;28;20024;-64
2023/12/09 08:52:39;;;;;;;42.60;25.50;;;1.20;99.90;;;;;;5054476;28;20021;-63
2023/12/09 08:55:05;;;;;;;39.80;25.08;;;1.20;99.90;;;;;;5054542;28;20044;-63
2023/12/09 08:57:31;;;;;;;41.72;25.63;;;1.20;99.90;;;;;;5054316;28;20262;-65
2023/12/09 08:59:56;;;;;;;44.08;25.15;;;1.20;99.90;;;;;;5054500;28;20029;-64
2023/12/09 09:02:22;;;;;;;39.92;23.55;;;1.20;99.90;;;;;;5054050;28;20049;-65
2023/12/09 09:04:48;;;;;;;41.67;24.88;;;1.20;99.90;;;;;;5054614;28;20143;-64
2023/12/09 09:07:14;;;;;;;41.53;23.75;;;1.20;99.90;;;;;;5053992;28;20036;-64
2023/12/09 09:09:40;;;;;;;43.67;25.13;;;1.20;99.90;;;;;;5054335;28;20033;-63
2023/12/09 09:12:07;;;;;;;42.65;24.92;;;1.20;99.90;;;;;;5054283;28;20359;-63
2023/12/09 09:14:34;;;;;;;41.22;24.02;;;1.20;99.90;;;;;;5053829;28;20040;-63
2023/12/09 09:17:00;;;;;;;41.58;24.40;;;1.10;99.90;;;;;;5054021;28;20025;-63
2023/12/09 09:19:25;;;;;;;37.33;23.27;;;1.20;99.90;;;;;;5053810;28;20040;-64
2023/12/09 09:21:52;;;;;;;49.30;25.00;;;1.20;99.90;;;;;;5053273;28;20025;-65
2023/12/09 09:24:18;;;;;;;37.30;23.58;;;1.20;99.90;;;;;;5053222;28;20047;-65
2023/12/09 09:26:44;;;;;;;38.83;23.17;;;1.20;99.90;;;;;;5053936;28;20108;-65
2023/12/09 09:29:10;;;;;;;38.53;22.83;;;1.20;99.90;;;;;;5054177;28;20033;-65
2023/12/09 09:31:36;;;;;;;36.65;21.63;;;1.20;99.90;;;;;;5053541;28;20441;-65
2023/12/09 09:34:01;;;;;;;40.97;24.45;;;1.20;99.90;;;;;;5053837;28;20064;-64
2023/12/09 09:36:27;;;;;;;38.70;22.80;;;1.20;99.90;;;;;;5052699;28;20056;-63
2023/12/09 09:38:53;;;;;;;43.03;24.42;;;1.20;99.90;;;;;;5053774;28;20025;-65
2023/12/09 09:41:42;;;;;;;36.05;22.30;;;1.20;99.90;;;;;;5053002;28;20032;-63
2023/12/09 09:44:11;;;;;;;35.63;21.75;;;1.30;99.90;;;;;;5053620;28;20084;-65
2023/12/09 09:46:38;;;;;;;37.30;22.30;;;1.30;99.90;;;;;;5053171;28;20025;-64
2023/12/09 09:49:05;;;;;;;36.22;21.95;;;1.30;99.90;;;;;;5053646;28;20033;-64
2023/12/09 09:51:31;;;;;;;33.00;21.00;;;1.30;99.90;;;;;;5053059;28;20033;-64
2023/12/09 09:54:06;;;;;;;36.28;21.88;;;1.30;99.90;;;;;;5053496;28;20024;-63
2023/12/09 09:56:33;;;;;;;32.58;20.45;;;1.30;99.90;;;;;;5052807;28;20082;-63
2023/12/09 09:58:58;;;;;;;33.78;20.85;;;1.30;99.90;;;;;;5053226;28;20052;-63
2023/12/09 10:01:26;;;;;;;36.67;21.75;;;1.20;99.90;;;;;;5052113;28;20449;-63
2023/12/09 10:03:52;;;;;;;32.72;19.83;;;1.30;99.90;;;;;;5053190;28;20105;-64
2023/12/09 10:06:19;;;;;;;32.72;19.73;;;1.30;99.90;;;;;;5052467;28;20132;-65
2023/12/09 10:08:45;;;;;;;31.45;20.63;;;1.30;99.90;;;;;;5053329;28;20033;-65
2023/12/09 10:11:11;;;;;;;32.55;20.20;;;1.30;99.90;;;;;;5053329;28;20385;-63
2023/12/09 10:13:37;;;;;;;30.17;19.23;;;1.40;99.90;;;;;;5052686;28;20411;-65
2023/12/09 10:16:03;;;;;;;32.33;19.25;;;1.30;99.90;;;;;;5052785;28;20521;-64
2023/12/09 10:18:30;;;;;;;30.73;18.92;;;1.30;99.90;;;;;;5052515;28;20056;-65
2023/12/09 10:20:55;;;;;;;34.58;20.65;;;1.30;99.90;;;;;;5053019;28;20025;-64
2023/12/09 10:23:22;;;;;;;33.53;20.40;;;1.30;99.90;;;;;;5052513;28;20036;-64
2023/12/09 10:25:48;;;;;;;32.83;19.70;;;1.40;99.90;;;;;;5053025;28;20029;-64
2023/12/09 10:28:14;;;;;;;34.28;20.85;;;1.40;99.90;;;;;;5052986;28;20065;-64
2023/12/09 10:30:45;;;;;;;37.33;22.17;;;1.40;99.90;;;;;;5052125;28;20060;-64
2023/12/09 10:33:11;;;;;;;31.88;19.38;;;1.40;99.90;;;;;;5051616;28;20063;-64
2023/12/09 10:35:38;;;;;;;33.65;19.48;;;1.40;99.90;;;;;;5052302;28;20060;-64
2023/12/09 10:38:08;;;;;;;33.00;19.55;;;1.40;99.90;;;;;;5052785;28;20362;-64
2023/12/09 10:40:34;;;;;;;31.73;20.23;;;1.40;99.90;;;;;;5052109;28;20028;-64
2023/12/09 10:43:03;;;;;;;38.85;21.50;;;1.40;99.90;;;;;;5052358;28;20028;-65
2023/12/09 10:45:29;;;;;;;34.08;20.52;;;1.40;99.90;;;;;;5052047;28;20037;-64
2023/12/09 10:47:54;;;;;;;30.30;17.80;;;1.40;99.90;;;;;;5052663;28;20059;-64
2023/12/09 10:50:20;;;;;;;32.45;19.55;;;1.40;99.90;;;;;;5052048;28;20113;-65
2023/12/09 10:52:46;;;;;;;31.58;19.55;;;1.50;99.90;;;;;;5052474;28;20056;-64
2023/12/09 10:55:11;;;;;;;31.30;18.45;;;1.50;99.90;;;;;;5052323;28;20040;-64
2023/12/09 10:57:38;;;;;;;28.38;18.38;;;1.50;99.90;;;;;;5051957;28;20031;-64
2023/12/09 11:00:10;;;;;;;33.08;18.55;;;1.50;99.90;;;;;;5052472;28;20373;-64
2023/12/09 11:02:44;;;;;;;33.03;19.30;;;1.50;99.90;;;;;;5050701;28;20057;-64
2023/12/09 11:05:10;;;;;;;31.20;18.48;;;1.50;99.90;;;;;;5052104;28;20478;-65
2023/12/09 11:07:36;;;;;;;29.77;19.00;;;1.50;99.90;;;;;;5052018;28;20033;-65
2023/12/09 11:10:03;;;;;;;29.20;18.15;;;1.50;99.90;;;;;;5052485;28;20078;-63
2023/12/09 11:12:33;;;;;;;31.05;18.08;;;1.50;99.90;;;;;;5051569;28;20418;-64
2023/12/09 11:15:13;;;;;;;26.70;17.83;;;1.50;99.90;;;;;;5052459;28;20068;-63
2023/12/09 11:17:43;;;;;;;30.67;18.55;;;1.50;99.90;;;;;;5052233;28;20060;-65
2023/12/09 11:20:14;;;;;;;28.08;16.23;;;1.50;99.90;;;;;;5052467;28;20473;-63
2023/12/09 11:22:41;;;;;;;28.20;17.52;;;1.50;99.90;;;;;;5052011;28;20029;-64
2023/12/09 11:25:21;;;;;;;30.13;17.38;;;1.50;99.90;;;;;;5052218;28;20040;-64
2023/12/09 11:27:51;;;;;;;29.73;17.35;;;1.50;99.90;;;;;;5052376;28;20394;-64
2023/12/09 11:30:38;;;;;;;26.92;15.60;;;1.50;99.90;;;;;;5052150;28;20174;-64
2023/12/09 11:33:04;;;;;;;26.25;16.33;;;1.50;99.90;;;;;;5052215;28;20094;-64
2023/12/09 11:35:33;;;;;;;27.95;17.42;;;1.50;99.90;;;;;;5051778;28;20179;-63
2023/12/09 11:37:59;;;;;;;28.27;16.85;;;1.50;99.90;;;;;;5051561;28;20032;-64
2023/12/09 11:40:29;;;;;;;29.00;17.15;;;1.60;99.90;;;;;;5051581;28;20493;-65
2023/12/09 11:42:57;;;;;;;30.63;18.40;;;1.60;99.90;;;;;;5052153;28;20044;-64
2023/12/09 11:45:23;;;;;;;31.13;19.38;;;1.60;99.90;;;;;;5052374;28;20415;-65
2023/12/09 11:47:50;;;;;;;31.15;19.15;;;1.60;99.90;;;;;;5055705;28;20112;-65
2023/12/09 11:50:17;;;;;;;31.60;18.58;;;1.60;99.90;;;;;;5055724;28;20381;-64
2023/12/09 11:52:46;;;;;;;29.25;17.95;;;1.70;99.90;;;;;;5055257;28;20036;-64
2023/12/09 11:55:16;;;;;;;34.15;20.00;;;1.70;99.90;;;;;;5055655;28;20029;-64
2023/12/09 11:57:41;;;;;;;32.00;19.50;;;1.70;99.90;;;;;;5054952;28;20025;-64
2023/12/09 12:00:11;;;;;;;33.05;18.77;;;1.70;99.90;;;;;;5055849;28;20039;-64
2023/12/09 12:02:38;;;;;;;32.00;18.95;;;1.80;99.90;;;;;;5055018;28;20044;-64
2023/12/09 12:05:05;;;;;;;28.13;18.00;;;1.80;99.90;;;;;;5055433;28;20093;-63
2023/12/09 12:07:31;;;;;;;33.17;20.63;;;1.80;99.90;;;;;;5055059;28;20025;-63
2023/12/09 12:09:56;;;;;;;34.75;20.80;;;1.80;99.90;;;;;;5055403;28;20079;-65
2023/12/09 12:12:22;;;;;;;29.25;18.08;;;1.80;99.90;;;;;;5055312;28;20036;-65
2023/12/09 12:14:48;;;;;;;28.10;17.52;;;1.80;99.90;;;;;;5054851;28;20036;-64
2023/12/09 12:17:13;;;;;;;25.83;17.20;;;1.90;99.90;;;;;;5055401;28;20045;-64
2023/12/09 12:19:39;;;;;;;27.67;16.85;;;1.80;99.90;;;;;;5054506;28;20492;-65
2023/12/09 12:22:05;;;;;;;29.27;17.48;;;1.80;99.90;;;;;;5055183;28;20092;-64
2023/12/09 12:24:41;;;;;;;31.27;19.23;;;1.80;99.90;;;;;;5054665;28;20362;-64
2023/12/09 12:27:07;;;;;;;28.48;17.88;;;1.80;99.90;;;;;;5055175;28;20035;-64
2023/12/09 12:29:33;;;;;;;26.75;17.83;;;1.80;99.90;;;;;;5054571;28;20082;-64
2023/12/09 12:31:59;;;;;;;28.05;17.65;;;1.80;99.90;;;;;;5054957;28;20029;-64